• Join FlightAware (Why Join?)
  • Login
  • US Flag 
10:16AM EST


 

Airport Tracker/Info


-or-


 

Live Flight TrackerFlight Track Log ✈ SWA824 ✈ 21-Apr-2013 ✈ KTPA - KMDW

Flight Track Log - Related Links

Times and Time Zones

All times are in EDT time to prevent confusion due to time zone crossing. See the SWA824 flight status page for this flight to view local times or setup timezone preferences in your user account.

Time Position Orientation Groundspeed Altitude Reporting Facility
EDT Latitude Longitude Course Direction KTS MPH feet Rate Location/Type
09:37PM 27.9833 -82.5333 353° North 145 167 500  Level Tampa TRACON
09:39PM 28.0994 -82.5492 353° North 223 257 4,400 2,520 Climbing Jacksonville Center
09:40PM 28.1600 -82.5983 324° Northwest 231 266 8,100 3,300 Climbing Jacksonville Center
09:41PM 28.2269 -82.6500 326° Northwest 267 307 11,000 2,760 Climbing Jacksonville Center
09:42PM 28.3083 -82.7111 327° Northwest 315 362 13,700 2,760 Climbing Jacksonville Center
09:43PM 28.3983 -82.7794 326° Northwest 359 413 16,600 3,000 Climbing Jacksonville Center
09:44PM 28.4797 -82.8500 323° Northwest 371 427 19,700 2,520 Climbing Jacksonville Center
09:45PM 28.5861 -82.8950 340° North 376 433 21,700 2,160 Climbing Jacksonville Center
09:46PM 28.6967 -82.9306 344° North 395 455 24,100 2,400 Climbing Jacksonville Center
09:47PM 28.8072 -82.9708 342° North 407 468 26,500 1,800 Climbing Jacksonville Center
09:48PM 28.9242 -83.0089 344° North 412 474 27,800 1,260 Climbing Jacksonville Center
09:49PM 29.0453 -83.0542 342° North 427 491 29,100 1,320 Climbing Jacksonville Center
09:50PM 29.1683 -83.0969 343° North 447 514 30,500 1,740 Climbing Jacksonville Center
09:51PM 29.2933 -83.1425 342° North 462 532 32,600 1,980 Climbing Jacksonville Center
09:52PM 29.4164 -83.1883 342° North 462 532 34,500 1,740 Climbing Jacksonville Center
09:53PM 29.5311 -83.2292 343° North 462 532 36,100 1,680 Climbing Jacksonville Center
09:54PM 29.6564 -83.2750 342° North 448 516 37,900 900 Climbing Jacksonville Center
09:55PM 29.7772 -83.3186 343° North 443 510 37,900  Level Jacksonville Center
09:56PM 29.8939 -83.3597 343° North 443 510 37,900  Level Jacksonville Center
09:57PM 30.0150 -83.4036 343° North 443 510 37,900  Level Jacksonville Center
09:58PM 30.1317 -83.4450 343° North 443 510 37,900  Level Jacksonville Center
09:59PM 30.2506 -83.4867 343° North 443 510 37,900  Level Jacksonville Center
10:00PM 30.3694 -83.5306 342° North 443 510 37,900  Level Jacksonville Center
10:01PM 30.4881 -83.5725 343° North 443 510 37,900  Level Jacksonville Center
10:02PM 30.5922 -83.6117 342° North 443 510 38,000  Climbing Jacksonville Center
10:03PM 30.7153 -83.6586 342° North 443 510 38,000  Level Jacksonville Center
10:04PM 30.8361 -83.7031 342° North 448 516 38,000  Level Jacksonville Center
10:05PM 30.9569 -83.7453 343° North 448 516 38,000  Level Jacksonville Center
10:06PM 31.0733 -83.7925 341° North 442 509 38,000  Level Jacksonville Center
10:07PM 31.1964 -83.8228 348° North 442 509 38,000  Level Jacksonville Center
10:09PM 31.4711 -83.8878 349° North 458 527 38,000  Level Atlanta Center
10:10PM 31.5942 -83.9194 348° North 453 521 38,000  Level Atlanta Center
10:11PM 31.7217 -83.9486 349° North 453 521 38,000  Level Atlanta Center
10:12PM 31.8425 -83.9728 350° North 453 521 38,000  Level Atlanta Center
10:13PM 31.9636 -84.0047 347° North 448 516 38,000  Level Atlanta Center
10:14PM 32.0847 -84.0314 349° North 448 516 38,000  Level Atlanta Center
10:15PM 32.1828 -84.0561 348° North 448 516 38,000  Level Atlanta Center
10:16PM 32.3122 -84.0856 349° North 442 509 38,000  Level Atlanta Center
10:17PM 32.4311 -84.1175 347° North 442 509 38,000  Level Atlanta Center
10:18PM 32.5522 -84.1422 350° North 437 503 38,000  Level Atlanta Center
10:19PM 32.6692 -84.1744 347° North 431 496 38,000  Level Atlanta Center
10:20PM 32.7881 -84.1994 350° North 431 496 38,000  Level Atlanta Center
10:21PM 32.9050 -84.2294 348° North 426 490 38,000  Level Atlanta Center
10:22PM 33.0239 -84.2594 348° North 431 496 38,000  Level Atlanta Center
10:23PM 33.1447 -84.2869 349° North 431 496 38,000  Level Atlanta Center
10:24PM 33.2722 -84.3172 349° North 431 496 38,000  Level Atlanta Center
10:25PM 33.3931 -84.3497 347° North 431 496 38,000  Level Atlanta Center
10:26PM 33.5100 -84.3778 349° North 426 490 38,000  Level Atlanta Center
10:27PM 33.6142 -84.4056 347° North 432 497 38,000  Level Atlanta Center
10:28PM 33.7353 -84.4336 349° North 432 497 38,000  Level Atlanta Center
10:29PM 33.8561 -84.4642 348° North 432 497 38,000  Level Atlanta Center
10:30PM 33.9708 -84.4922 349° North 432 497 38,000  Level Atlanta Center
10:31PM 34.0897 -84.5228 348° North 432 497 38,000  Level Atlanta Center
10:32PM 34.2253 -84.5539 349° North 443 510 38,000  Level Atlanta Center
10:33PM 34.3461 -84.5847 348° North 438 504 38,000  Level Atlanta Center
10:34PM 34.4650 -84.6158 348° North 438 504 38,000  Level Atlanta Center
10:35PM 34.5858 -84.6442 349° North 438 504 38,000  Level Atlanta Center
10:36PM 34.6881 -84.6728 347° North 428 493 38,000  Level Atlanta Center
10:37PM 34.8089 -84.7042 348° North 428 493 38,000  Level Atlanta Center
10:38PM 34.9317 -84.7356 348° North 433 498 38,000  Level Atlanta Center
10:39PM 35.0506 -84.7644 349° North 438 504 38,000  Level Atlanta Center
10:40PM 35.1694 -84.7958 348° North 438 504 38,000  Level Atlanta Center
10:41PM 35.2903 -84.8275 348° North 433 498 38,000  Level Atlanta Center
10:42PM 35.4111 -84.8567 349° North 433 498 38,000  Level Atlanta Center
10:43PM 35.5317 -84.8886 348° North 433 498 38,000  Level Atlanta Center
10:44PM 35.6525 -84.9206 348° North 433 498 38,000  Level Atlanta Center
10:45PM 35.7608 -84.9497 348° North 433 498 38,000  Level Atlanta Center
10:47PM 36.0800 -85.0306 348° North 443 510 38,000  Level Indianapolis Center
10:48PM 36.2008 -85.0631 348° North 443 510 38,000  Level Indianapolis Center
10:49PM 36.3228 -85.0947 348° North 447 514 38,000  Level Indianapolis Center
10:50PM 36.4447 -85.1269 348° North 446 513 38,000  Level Indianapolis Center
10:51PM 36.5669 -85.1594 348° North 449 517 38,000  Level Indianapolis Center
10:52PM 36.6883 -85.1922 348° North 447 514 38,000  Level Indianapolis Center
10:53PM 36.8119 -85.2242 348° North 452 520 38,000  Level Indianapolis Center
10:54PM 36.9350 -85.2575 348° North 452 520 38,000  Level Indianapolis Center
10:55PM 37.0544 -85.2892 348° North 452 520 38,000  Level Indianapolis Center
10:56PM 37.1783 -85.3228 348° North 455 524 38,000  Level Indianapolis Center
10:57PM 37.3019 -85.3567 348° North 455 524 38,000  Level Indianapolis Center
10:58PM 37.4253 -85.3908 348° North 455 524 38,000  Level Indianapolis Center
10:59PM 37.5478 -85.4233 348° North 449 517 38,000  Level Indianapolis Center
11:00PM 37.6678 -85.4589 347° North 444 511 38,000  Level Indianapolis Center
11:01PM 37.7908 -85.4919 348° North 449 517 38,000  Level Indianapolis Center
11:02PM 37.9106 -85.5242 348° North 452 520 38,000  Level Indianapolis Center
11:03PM 38.0314 -85.5572 348° North 447 514 38,000  Level Indianapolis Center
11:04PM 38.1525 -85.5886 348° North 444 511 38,000 -480 Level Indianapolis Center
11:05PM 38.3006 -85.6150 352° North 446 513 37,100 -960 Descending Indianapolis Center
11:06PM 38.4211 -85.6397 351° North 441 507 36,100 -960 Descending Indianapolis Center
11:07PM 38.5450 -85.6617 352° North 444 511 35,200 -600 Descending Indianapolis Center
11:08PM 38.6653 -85.6847 351° North 439 505 35,000 -120 Descending Indianapolis Center
11:09PM 38.7839 -85.7086 351° North 433 498 35,000  Level Indianapolis Center
11:10PM 38.9011 -85.7303 352° North 427 491 35,000  Level Indianapolis Center
11:11PM 39.0200 -85.7539 351° North 431 496 35,000  Level Indianapolis Center
11:12PM 39.1372 -85.7783 351° North 428 493 35,000  Level Indianapolis Center
11:14PM 39.2533 -85.7994 352° North 423 487 35,000  Level Indianapolis Center
11:15PM 39.3714 -85.8239 351° North 427 491 35,000  Level Indianapolis Center
11:16PM 39.4917 -85.8472 351° North 434 499 35,000  Level Indianapolis Center
11:17PM 39.6106 -85.8711 351° North 432 497 35,000 -60 Level Indianapolis Center
11:18PM 39.7422 -85.8978 351° North 432 497 34,900 -60 Descending Indianapolis Center
11:19PM 39.8614 -85.9217 351° North 430 495 34,900  Level Indianapolis Center
11:20PM 39.9689 -85.9442 351° North 435 501 35,000  Climbing Indianapolis Center
11:21PM 40.0881 -85.9669 352° North 433 498 35,000  Level Indianapolis Center
11:21PM 40.1819 -86.0167 338° Northwest 428 493 35,000 -480 Level Chicago Center
11:22PM 40.2814 -86.0992 328° Northwest 423 487 34,200 -900 Descending Chicago Center
11:23PM 40.3794 -86.1822 327° Northwest 419 482 33,200 -1,620 Descending Chicago Center
11:24PM 40.4772 -86.2625 328° Northwest 416 479 31,000 -2,880 Descending Chicago Center
11:25PM 40.5767 -86.3478 327° Northwest 424 488 27,500 -3,240 Descending Chicago Center
11:26PM 40.6761 -86.4322 327° Northwest 424 488 24,500 -2,760 Descending Chicago Center
11:27PM 40.7728 -86.5147 327° Northwest 417 480 21,900 -2,520 Descending Chicago Center
11:28PM 40.8658 -86.5947 327° Northwest 402 463 19,400 -2,340 Descending Chicago Center
11:29PM 40.9561 -86.6722 327° Northwest 389 448 17,200 -2,520 Descending Chicago Center
11:30PM 41.0519 -86.7553 327° Northwest 377 434 14,400 -2,760 Descending Chicago Center
11:31PM 41.1375 -86.8292 327° Northwest 372 428 11,700 -1,680 Descending Chicago Center
11:32PM 41.2206 -86.9017 327° Northwest 362 417 11,000 -660 Descending Chicago Center
11:33PM 41.2989 -86.9694 327° Northwest 344 396 10,400 -1,020 Descending Chicago Center
11:35PM 41.3681 -87.0300 327° Northwest 306 352 9,000 -1,380 Descending Chicago Center
11:36PM 41.4339 -87.0878 327° Northwest 290 334 7,600 -1,620 Descending Chicago Center
11:36PM 41.4667 -87.1333 314° West 283 326 6,700 -1,080 Descending Chicago TRACON
11:37PM 41.4833 -87.2333 283° West 274 315 6,000 -720 Descending Chicago TRACON
11:38PM 41.5167 -87.3333 294° West 275 316 5,200 -1,020 Descending Chicago TRACON
11:39PM 41.5333 -87.4167 285° West 273 314 4,100 -780 Descending Chicago TRACON
11:40PM 41.5500 -87.4833 288° West 271 312 4,000 -120 Descending Chicago TRACON
11:41PM 41.5719 -87.5689 289° West 270 311 4,000  Level Chicago Center
11:42PM 41.6161 -87.6503 306° West 273 314 4,000 -240 Level Chicago Center
11:42PM 41.6333 -87.6833 305° West 268 308 3,700 -720 Descending Chicago TRACON
11:43PM 41.6667 -87.7500 304° West 242 278 3,100 -600 Descending Chicago TRACON
11:44PM 41.7167 -87.8333 309° West 207 238 2,500 -540 Descending Chicago TRACON
11:45PM 41.7333 -87.8833 294° West 198 228 2,100 -360 Descending Chicago TRACON
11:46PM 41.7675 -87.9086 331° Northwest 207 238 2,000 -60 Descending Chicago Center
11:47PM 41.8189 -87.8853 19° North 199 229 2,000  Level Chicago Center
11:47PM 41.8333 -87.8667 44° Northeast 194 223 2,000  Level Chicago TRACON
11:48PM 41.8333 -87.8167 90° East 134 154 2,000 -360 Level Chicago TRACON
11:49PM 41.8167 -87.8000 143° Southeast 112 129 1,300 -720 Descending Chicago TRACON